createdAt,value
2022-12-05T00:01:13.386Z,18.08
2022-12-05T00:06:36.527Z,17.75
2022-12-05T00:11:58.296Z,18.08
2022-12-05T00:17:20.087Z,20.52
2022-12-05T00:22:41.886Z,20.17
2022-12-05T00:28:03.818Z,20.60
2022-12-05T00:33:25.628Z,20.17
2022-12-05T00:38:47.836Z,23.25
2022-12-05T00:44:12.003Z,19.88
2022-12-05T00:49:33.891Z,20.55
2022-12-05T00:54:55.679Z,20.65
2022-12-05T01:00:17.908Z,23.30
2022-12-05T01:05:39.752Z,18.70
2022-12-05T01:11:02.405Z,21.23
2022-12-05T01:16:30.396Z,18.85
2022-12-05T01:21:53.103Z,20.35
2022-12-05T01:27:14.889Z,21.75
2022-12-05T01:32:36.643Z,20.10
2022-12-05T01:37:58.498Z,20.38
2022-12-05T01:43:20.382Z,21.35
2022-12-05T01:48:42.204Z,21.83
2022-12-05T01:54:05.309Z,20.02
2022-12-05T01:59:30.306Z,17.00
2022-12-05T02:05:02.537Z,17.48
2022-12-05T02:10:25.802Z,20.65
2022-12-05T02:15:59.320Z,15.93
2022-12-05T02:21:39.788Z,20.70
2022-12-05T02:27:04.517Z,24.10
2022-12-05T02:33:04.594Z,17.33
2022-12-05T02:38:49.910Z,17.30
2022-12-05T02:44:18.406Z,18.83
2022-12-05T02:49:42.080Z,15.20
2022-12-05T02:55:07.435Z,16.67
2022-12-05T03:00:29.224Z,16.95
2022-12-05T03:06:01.417Z,17.05
2022-12-05T03:11:23.613Z,12.90
2022-12-05T03:16:52.635Z,17.65
2022-12-05T03:22:24.284Z,16.20
2022-12-05T03:28:08.934Z,19.45
2022-12-05T03:33:36.005Z,15.10
2022-12-05T03:39:04.774Z,18.00
2022-12-05T03:44:42.663Z,18.55
2022-12-05T03:50:11.945Z,17.05
2022-12-05T03:55:39.247Z,16.77
2022-12-05T04:01:03.704Z,16.88
2022-12-05T04:06:39.163Z,15.35
2022-12-05T04:12:06.782Z,14.47
2022-12-05T04:17:53.930Z,17.35
2022-12-05T04:23:16.616Z,15.35
2022-12-05T04:28:54.230Z,15.30
2022-12-05T04:34:20.054Z,14.73
2022-12-05T04:39:48.935Z,15.30
2022-12-05T04:45:18.148Z,16.50
2022-12-05T04:50:41.953Z,14.13
2022-12-05T04:56:05.539Z,14.07
2022-12-05T05:01:50.715Z,11.32
2022-12-05T05:07:14.098Z,15.07
2022-12-05T05:12:35.893Z,12.45
2022-12-05T05:17:57.720Z,15.27
2022-12-05T05:23:19.498Z,14.10
2022-12-05T05:28:41.385Z,15.32
2022-12-05T05:34:09.393Z,15.02
2022-12-05T05:39:31.750Z,14.52
2022-12-05T05:44:53.578Z,14.32
2022-12-05T05:50:21.089Z,13.55
2022-12-05T05:55:43.401Z,13.65
2022-12-05T06:01:13.088Z,15.98
2022-12-05T06:06:34.924Z,15.20
2022-12-05T06:11:56.708Z,15.57
2022-12-05T06:17:18.723Z,12.50
2022-12-05T06:22:40.601Z,14.70
2022-12-05T06:28:02.409Z,16.50
2022-12-05T06:33:24.339Z,16.65
2022-12-05T06:38:46.122Z,11.18
2022-12-05T06:44:09.476Z,16.63
2022-12-05T06:49:34.917Z,15.70
2022-12-05T06:54:59.537Z,17.08
2022-12-05T07:00:21.456Z,14.88
2022-12-05T07:05:43.207Z,18.90
2022-12-05T07:11:05.233Z,20.70
2022-12-05T07:16:27.194Z,18.77
2022-12-05T07:21:49.045Z,14.68
2022-12-05T07:27:11.125Z,20.10
2022-12-05T07:32:34.139Z,16.60
2022-12-05T07:37:55.974Z,16.50
2022-12-05T07:43:17.737Z,14.90
2022-12-05T07:48:39.967Z,17.92
2022-12-05T07:54:02.375Z,17.48
2022-12-05T07:59:24.136Z,16.85
2022-12-05T08:04:45.959Z,16.75
2022-12-05T08:10:08.343Z,19.27
2022-12-05T08:15:30.259Z,18.50
2022-12-05T08:20:52.024Z,17.95
2022-12-05T08:26:15.523Z,14.98
2022-12-05T08:31:44.866Z,17.92
2022-12-05T08:37:06.639Z,19.83
2022-12-05T08:42:28.463Z,14.95
2022-12-05T08:47:50.261Z,19.23
2022-12-05T08:53:12.118Z,20.95
2022-12-05T08:58:34.764Z,19.67
2022-12-05T09:03:56.803Z,18.20
2022-12-05T09:09:18.675Z,18.10
2022-12-05T09:14:40.602Z,19.85
2022-12-05T09:20:03.771Z,21.08
2022-12-05T09:25:25.551Z,21.15
2022-12-05T09:31:02.385Z,21.77
2022-12-05T09:36:29.596Z,20.95
2022-12-05T09:41:57.437Z,24.13
2022-12-05T09:47:28.077Z,20.30
2022-12-05T09:53:18.369Z,24.83
2022-12-05T09:58:46.427Z,21.88
2022-12-05T10:04:54.443Z,20.40
2022-12-05T10:10:32.762Z,20.80
2022-12-05T10:16:00.047Z,22.53
2022-12-05T10:21:28.815Z,21.77
2022-12-05T10:26:59.084Z,25.02
2022-12-05T10:32:54.503Z,23.48
2022-12-05T10:38:32.698Z,23.00
2022-12-05T10:43:56.294Z,20.27
2022-12-05T10:49:18.817Z,24.17
2022-12-05T10:54:49.185Z,27.67
2022-12-05T11:00:15.917Z,26.52
2022-12-05T11:05:38.269Z,25.50
2022-12-05T11:11:17.739Z,29.85
2022-12-05T11:16:39.839Z,23.95
2022-12-05T11:22:02.619Z,33.25
2022-12-05T11:27:32.482Z,26.73
2022-12-05T11:33:20.683Z,26.77
2022-12-05T11:38:42.929Z,25.92
2022-12-05T11:44:22.509Z,24.05
2022-12-05T11:50:28.409Z,26.90
2022-12-05T11:56:16.821Z,24.77
2022-12-05T12:02:04.309Z,27.85
2022-12-05T12:07:51.064Z,30.52
2022-12-05T12:13:35.385Z,30.15
2022-12-05T12:19:15.518Z,30.80
2022-12-05T12:24:59.434Z,22.33
2022-12-05T12:30:38.024Z,28.13
2022-12-05T12:36:23.060Z,27.17
2022-12-05T12:42:18.455Z,28.65
2022-12-05T12:48:00.144Z,28.30
2022-12-05T12:53:42.102Z,26.35
2022-12-05T12:59:22.437Z,29.92
2022-12-05T13:04:52.991Z,29.55
2022-12-05T13:10:37.270Z,28.05
2022-12-05T13:16:01.550Z,28.33
2022-12-05T13:21:24.202Z,27.50
2022-12-05T13:26:49.031Z,30.88
2022-12-05T13:32:38.833Z,26.85
2022-12-05T13:38:00.664Z,30.17
2022-12-05T13:43:26.663Z,25.05
2022-12-05T13:48:49.737Z,27.95
2022-12-05T13:54:18.251Z,30.98
2022-12-05T14:00:05.202Z,30.45
2022-12-05T14:05:42.522Z,30.20
2022-12-05T14:11:04.315Z,25.83
2022-12-05T14:16:26.145Z,26.73
2022-12-05T14:22:03.312Z,27.67
2022-12-05T14:28:02.054Z,28.50
2022-12-05T14:33:23.885Z,32.65
2022-12-05T14:38:45.714Z,29.83
2022-12-05T14:44:18.447Z,26.90
2022-12-05T14:49:58.768Z,31.73
2022-12-05T14:55:26.455Z,29.65
2022-12-05T15:00:57.480Z,37.80
2022-12-05T15:06:20.370Z,33.67
2022-12-05T15:11:42.214Z,31.98
2022-12-05T15:17:06.028Z,34.10
2022-12-05T15:22:29.450Z,34.25
2022-12-05T15:28:19.019Z,33.63
2022-12-05T15:33:52.375Z,29.13
2022-12-05T15:39:23.702Z,37.10
2022-12-05T15:44:45.590Z,31.95
2022-12-05T15:50:25.820Z,31.55
2022-12-05T15:55:55.248Z,30.30
2022-12-05T16:01:20.925Z,35.00
2022-12-05T16:06:48.301Z,30.83
2022-12-05T16:12:19.252Z,32.40
2022-12-05T16:17:46.070Z,33.00
2022-12-05T16:23:43.562Z,37.58
2022-12-05T16:29:08.748Z,36.63
2022-12-05T16:34:33.703Z,29.08
2022-12-05T16:39:56.615Z,36.60
2022-12-05T16:45:39.676Z,32.40
2022-12-05T16:51:13.830Z,36.85
2022-12-05T16:56:36.165Z,33.47
2022-12-05T17:01:58.038Z,35.92
2022-12-05T17:07:19.910Z,37.47
2022-12-05T17:12:47.779Z,38.85
2022-12-05T17:18:18.561Z,37.72
2022-12-05T17:23:46.017Z,32.15
2022-12-05T17:29:09.700Z,30.90
2022-12-05T17:34:31.460Z,36.55
2022-12-05T17:39:53.206Z,36.38
2022-12-05T17:45:16.518Z,34.83
2022-12-05T17:50:40.635Z,36.20
2022-12-05T17:56:02.486Z,30.98
2022-12-05T18:01:24.444Z,34.75
2022-12-05T18:06:46.286Z,33.53
2022-12-05T18:12:08.090Z,33.80
2022-12-05T18:17:30.081Z,33.50
2022-12-05T18:22:51.893Z,34.42
2022-12-05T18:28:17.774Z,32.05
2022-12-05T18:33:43.405Z,35.78
2022-12-05T18:39:05.489Z,31.45
2022-12-05T18:44:27.269Z,28.45
2022-12-05T18:49:49.056Z,30.95
2022-12-05T18:55:17.274Z,33.80
2022-12-05T19:00:39.787Z,30.15
2022-12-05T19:06:02.046Z,32.55
2022-12-05T19:11:25.960Z,33.30
2022-12-05T19:16:58.074Z,31.08
2022-12-05T19:22:21.830Z,34.83
2022-12-05T19:27:45.393Z,32.63
2022-12-05T19:33:07.233Z,32.45
2022-12-05T19:38:34.162Z,32.53
2022-12-05T19:43:59.666Z,34.22
2022-12-05T19:49:21.719Z,35.30
2022-12-05T19:54:44.223Z,28.88
2022-12-05T20:00:07.109Z,31.80
2022-12-05T20:05:28.942Z,31.67
2022-12-05T20:10:50.717Z,31.88
2022-12-05T20:16:14.815Z,32.33
2022-12-05T20:21:37.985Z,33.28
2022-12-05T20:26:59.857Z,34.78
2022-12-05T20:32:21.679Z,34.17
2022-12-05T20:37:43.615Z,35.70
2022-12-05T20:43:05.604Z,32.90
2022-12-05T20:48:27.390Z,32.97
2022-12-05T20:53:50.214Z,35.40
2022-12-05T20:59:13.272Z,34.45
2022-12-05T21:04:35.074Z,35.42
2022-12-05T21:09:57.025Z,33.70
2022-12-05T21:15:19.121Z,34.75
2022-12-05T21:20:42.418Z,38.58
2022-12-05T21:26:06.912Z,37.72
2022-12-05T21:31:35.157Z,39.72
2022-12-05T21:36:57.159Z,39.70
2022-12-05T21:42:19.022Z,40.35
2022-12-05T21:47:40.879Z,35.90
2022-12-05T21:53:02.744Z,31.13
2022-12-05T21:58:24.626Z,34.17
2022-12-05T22:03:46.923Z,40.05
2022-12-05T22:09:08.764Z,34.45
2022-12-05T22:14:30.650Z,38.55
2022-12-05T22:19:52.476Z,34.40
2022-12-05T22:25:14.294Z,38.78
2022-12-05T22:30:36.054Z,41.10
2022-12-05T22:36:00.267Z,36.90
2022-12-05T22:41:25.170Z,38.80
2022-12-05T22:46:47.042Z,36.72
2022-12-05T22:52:08.871Z,37.08
2022-12-05T22:57:30.779Z,33.97
2022-12-05T23:02:52.931Z,39.40
2022-12-05T23:08:15.141Z,34.58
2022-12-05T23:13:38.235Z,38.55
2022-12-05T23:19:02.909Z,33.78
2022-12-05T23:24:24.732Z,35.95
2022-12-05T23:29:47.139Z,38.85
2022-12-05T23:35:09.141Z,39.13
2022-12-05T23:40:30.945Z,34.05
2022-12-05T23:45:52.814Z,35.90
2022-12-05T23:51:18.186Z,36.95
2022-12-05T23:56:40.096Z,36.53
